LEMG/AGP METAR and TAF weather

Enter ICAO airport designator
Station Type Date Time Source
LEMG METAR 2021/10/22 18:00 UTC NOAA

LEMG 221800Z 29010KT 9999 FEW030 23/08 Q1014 NOSIG


Station Type Date Time Source
LEMG Decoded METAR 2021/10/22 18:00 UTC NOAA

Malaga / Aeropuerto, Spain (LEMG) 36-40N 004-29W 7M
Oct 22, 2021 - 02:00 PM EDT / 2021.10.22 1800 UTC
Wind: from the WNW (290 degrees) at 12 MPH (10 KT):0
Visibility: greater than 7 mile(s):0
Sky conditions: mostly clear
Temperature: 73 F (23 C)
Dew Point: 46 F (8 C)
Relative Humidity: 38%
Pressure (altimeter): 29.94 in. Hg (1014 hPa)
ob: LEMG 221800Z 29010KT 9999 FEW030 23/08 Q1014 NOSIG
cycle: 18

Station Type Date Time Source
LEMG TAF 2021/10/22 18:27 UTC NOAA

TAF TAF LEMG 221700Z 2218/2318 32008KT 9999 SCT025 TX24/2218Z TN16/2306Z
BECMG 2218/2220 09009KT PROB40
TEMPO 2223/2306 4000 SHRA BKN014 SCT025TCU
TEMPO 2305/2310 28006KT

Example: see airport list